EFHKEFMA

Guest
Details From EFHK - Helsinki Vantaa
To EFMA - Mariehamn
Flight Number -
Tags Generated
Created
Modified
Stats Distance 152 nm / 281 km
Max Altitude 0 ft / 0 m
Waypoints 2
Social Downloads 0
Likes 0
Share VATSIM

Download

Looking for another format? Having issues loading an existing format? Contact us
Advertisement - Login to hide

Notes

Generated

Route

EFHK EFMA

ID Type Via Altitude Latitude Longitude Leg Dist Tot Dist Heading (true) Name
O EFHK APT - 0 ft / 0 m 60.33028˚ 24.96450˚ - 0 nm - -
O EFMA APT - 0 ft / 0 m 60.11436˚ 19.89137˚ 151 nm 151 nm 267° / 263° -

Altitude Profile

Advertisement - Login to hide

EFHK

Details ICAO EFHK (HEL)
Name Helsinki Vantaa
Region Finland
Timezone Europe/Helsinki (UTC+2.0)
Stats Elevation 179 ft / 55 m (AMSL)
Location 60.320569° 24.952668°
Runways 3
Magnetic Variation 8.954° E

METAR

EFHK 151020Z 12005KT 2500 -SN BKN002 00/M00 Q0990 BECMG 4000

Decode

TAF

TAF TAF EFHK 150833Z 1509/1609 11005KT 2500 BR BKN002 TEMPO 1509/1512 1400 SN BECMG 1513/1515 17010KT 3500 BKN006 TEMPO 1519/1609 2500 -RASN

Decode

Departure Runways

ID Width Length Bearing (true) Bearing (mag) Surface Threshold Offset Overrun Length
04L 197 ft / 60 m 9,817 ft / 2,992 m 47.43° 38.48° Asphalt 800 ft / 244 m 0 ft / 0 m
04R 197 ft / 60 m 10,472 ft / 3,192 m 47.46° 38.51° Asphalt 262 ft / 80 m 0 ft / 0 m
15 197 ft / 60 m 9,497 ft / 2,895 m 153.08° 144.13° Asphalt 0 ft / 0 m 198 ft / 60 m
22L 197 ft / 60 m 10,472 ft / 3,192 m 227.50° 218.55° Asphalt 0 ft / 0 m 197 ft / 60 m
22R 197 ft / 60 m 9,817 ft / 2,992 m 227.46° 218.51° Asphalt 912 ft / 278 m 0 ft / 0 m
33 197 ft / 60 m 9,497 ft / 2,895 m 333.10° 324.15° Asphalt 0 ft / 0 m 197 ft / 60 m

EFMA

Details ICAO EFMA (MHQ)
Name Mariehamn
Region Finland
Timezone Europe/Mariehamn (UTC+2.0)
Stats Elevation 17 ft / 5 m (AMSL)
Location 60.122203° 19.898157°
Runways 1
Magnetic Variation 6.956° E

METAR

EFMA 151020Z AUTO 11008KT 060V150 9999 SCT014 BKN026 04/02 Q0985

Decode

TAF

Not found

Destination Runways

ID Width Length Bearing (true) Bearing (mag) Surface Threshold Offset Overrun Length
03 197 ft / 60 m 6,231 ft / 1,899 m 23.33° 16.37° Asphalt 0 ft / 0 m 161 ft / 49 m
21 197 ft / 60 m 6,231 ft / 1,899 m 203.35° 196.39° Asphalt 0 ft / 0 m 150 ft / 46 m

Approach Navaids

Runway Type Ident Frequency Range Bearing (true) Bearing (mag) Slope Elevation
21 Localiser MA 110.90 MHz 18 nm / 33 km 203.34° 196.38° - 17 ft / 5 m (AMSL)
21 Glidescope MA 110.90 MHz 10 nm / 19 km 203.34° 196.38° 3.50° 17 ft / 5 m (AMSL)

Popular Alternatives